Greenwood, Arkansas
Current Conditions -  °F | °C
As of 12:53 PM on Thursday 27 Nov 2014 (Local Time) from KFSM Reporting Station
Clear Clear  
Wind Chill: 42°   Ceiling: Unl
Heat Index: 44°   Visibility: 10mi
Dew Point: 24°   Wind: 5mph
Humidity: 45%   Direction: 260°W
Pressure: 30.52"   Gusts: NA
Location:  35.22°N, 94.26°W
Report Text: KFSM 271853Z 26004KT 10SM CLR 07/M04 A3052 RMK AO2 SLP338 T00671044
Loading
Personal Weather Stations






























Interactive Weather Map New forecast layout! Learn more

10-Day Weather Forecast

Advertisements
Track Severe Weather on mobile